TISX/STX METAR and TAF weather

Enter ICAO airport designator
Station Type Date Time Source
TISX METAR 2022/01/29 10:53 UTC NOAA

TISX 291053Z 02005KT 10SM 21/19 A2995 RMK AO2 SLP141 T02110189 $


Station Type Date Time Source
TISX Decoded METAR 2022/01/29 10:53 UTC NOAA

Christiansted, Henry E. Rohlsen Airport, Virgin Islands (TISX) 17-42N 064-48W 17M
Jan 29, 2022 - 05:53 AM EST / 2022.01.29 1053 UTC
Wind: from the NNE (020 degrees) at 6 MPH (5 KT):0
Visibility: 10 mile(s):0
Temperature: 70.0 F (21.1 C)
Dew Point: 66.0 F (18.9 C)
Relative Humidity: 87%
Pressure (altimeter): 29.95 in. Hg (1014 hPa)
ob: TISX 291053Z 02005KT 10SM 21/19 A2995 RMK AO2 SLP141 T02110189
cycle: 11

Station Type Date Time Source
TISX TAF 2022/01/29 06:28 UTC NOAA

TAF TISX 290520Z 2906/3006 04005KT P6SM SKC
FM291400 12011KT P6SM VCSH SCT025
FM292300 06003KT P6SM FEW025

Example: see airport list